Time;durP1;ratioP1;P1;durP2;ratioP2;P2;SDS_P1;SDS_P2;PMS_P1;PMS_P2;Temp;Humidity;BMP_temperature;BMP_pressure;BME280_temperature;BME280_humidity;BME280_pressure;Samples;Min_cycle;Max_cycle;Signal;HPM_P1;HPM_P2
2022/01/29 00:00:10;;;;;;;41.47;31.23;;;7.50;99.90;;;;;;5031483;28;20379;-92
2022/01/29 00:02:36;;;;;;;42.67;32.50;;;7.50;99.90;;;;;;5013963;28;20049;-92
2022/01/29 00:05:01;;;;;;;39.28;30.92;;;7.60;99.90;;;;;;5013090;28;20055;-90
2022/01/29 00:07:27;;;;;;;43.88;31.73;;;7.50;99.90;;;;;;5014461;28;20046;-90
2022/01/29 00:10:00;;;;;;;39.65;32.53;;;7.50;99.90;;;;;;5012687;28;20153;-91
2022/01/29 00:12:25;;;;;;;46.83;32.85;;;7.50;99.90;;;;;;5031447;28;20120;-90
2022/01/29 00:14:51;;;;;;;46.90;33.40;;;7.50;99.90;;;;;;5030932;28;20446;-92
2022/01/29 00:17:17;;;;;;;46.17;34.20;;;7.50;99.90;;;;;;5014209;28;20046;-91
2022/01/29 00:19:42;;;;;;;48.00;36.28;;;7.50;99.90;;;;;;5013972;28;20049;-91
2022/01/29 00:22:08;;;;;;;44.97;35.30;;;7.50;99.90;;;;;;5033094;28;20049;-92
2022/01/29 00:24:34;;;;;;;52.63;36.97;;;7.50;99.90;;;;;;5014973;28;20038;-92
2022/01/29 00:27:03;;;;;;;45.10;36.08;;;7.50;99.90;;;;;;5032319;28;20164;-93
2022/01/29 00:29:29;;;;;;;47.72;36.38;;;7.50;99.90;;;;;;5033020;28;20171;-92
2022/01/29 00:31:55;;;;;;;45.35;35.90;;;7.50;99.90;;;;;;5032732;28;20049;-94
2022/01/29 00:34:20;;;;;;;46.85;36.15;;;7.40;99.90;;;;;;5014436;28;20052;-92
2022/01/29 00:36:46;;;;;;;51.97;38.45;;;7.40;99.90;;;;;;4996969;28;20402;-92
2022/01/29 00:39:11;;;;;;;51.53;39.08;;;7.40;99.90;;;;;;4996204;28;20479;-91
2022/01/29 00:41:37;;;;;;;49.50;38.10;;;7.40;99.90;;;;;;5013654;28;20049;-89
2022/01/29 00:44:03;;;;;;;51.28;38.10;;;7.40;99.90;;;;;;5014496;28;20131;-92
2022/01/29 00:46:29;;;;;;;52.20;39.85;;;7.30;99.90;;;;;;4996902;28;20053;-88
2022/01/29 00:48:54;;;;;;;53.88;40.50;;;7.40;99.90;;;;;;5014085;28;20049;-91
2022/01/29 00:51:21;;;;;;;51.10;39.67;;;7.30;99.90;;;;;;4998269;28;20103;-92
2022/01/29 00:53:46;;;;;;;54.10;39.88;;;7.30;99.90;;;;;;5013565;28;20049;-92
2022/01/29 00:56:12;;;;;;;50.83;39.67;;;7.30;99.90;;;;;;5013727;28;20049;-91
2022/01/29 00:58:37;;;;;;;54.97;41.20;;;7.30;99.90;;;;;;5031882;28;20046;-92
2022/01/29 01:01:03;;;;;;;54.67;39.75;;;7.20;99.90;;;;;;5013954;28;20401;-91
2022/01/29 01:03:28;;;;;;;57.30;40.20;;;7.30;99.90;;;;;;4996951;28;20040;-95
2022/01/29 01:05:54;;;;;;;55.42;39.67;;;7.30;99.90;;;;;;4996665;28;20041;-91
2022/01/29 01:08:19;;;;;;;56.58;36.95;;;7.30;99.90;;;;;;5012721;28;20048;-93
2022/01/29 01:10:45;;;;;;;55.30;39.85;;;7.30;99.90;;;;;;5030693;28;20059;-93
2022/01/29 01:13:11;;;;;;;54.03;38.75;;;7.30;99.90;;;;;;5012918;28;20033;-91
2022/01/29 01:15:36;;;;;;;49.15;37.17;;;7.30;99.90;;;;;;5013483;28;20053;-92
2022/01/29 01:18:02;;;;;;;52.28;39.28;;;7.30;99.90;;;;;;4997627;28;20033;-94
2022/01/29 01:20:28;;;;;;;55.42;39.33;;;7.30;99.90;;;;;;4997080;28;20060;-92
2022/01/29 01:22:54;;;;;;;52.70;39.15;;;7.30;99.90;;;;;;4996111;28;20085;-92
2022/01/29 01:25:19;;;;;;;49.67;37.97;;;7.30;99.90;;;;;;5011905;28;20481;-93
2022/01/29 01:27:45;;;;;;;55.10;36.25;;;7.30;99.90;;;;;;5013106;28;20084;-89
2022/01/29 01:30:11;;;;;;;51.13;38.45;;;7.20;99.90;;;;;;5032125;28;20128;-92
2022/01/29 01:32:37;;;;;;;51.50;39.00;;;7.30;99.90;;;;;;5029733;28;20533;-91
2022/01/29 01:35:14;;;;;;;48.58;36.65;;;7.30;99.90;;;;;;5012414;28;20054;-91
2022/01/29 01:37:47;;;;;;;51.60;37.33;;;7.30;99.90;;;;;;5012312;28;20095;-91
2022/01/29 01:40:14;;;;;;;50.25;36.80;;;7.30;99.90;;;;;;5028911;28;20068;-93
2022/01/29 01:42:39;;;;;;;50.97;37.10;;;7.30;99.90;;;;;;5033610;28;20103;-90
2022/01/29 01:45:05;;;;;;;52.67;37.35;;;7.30;99.90;;;;;;5016267;28;20057;-89
2022/01/29 01:47:31;;;;;;;51.40;37.03;;;7.30;99.90;;;;;;5016679;28;20029;-88
2022/01/29 01:49:56;;;;;;;50.05;34.25;;;7.30;99.90;;;;;;5034872;28;20072;-89
2022/01/29 01:52:22;;;;;;;49.75;36.22;;;7.30;99.90;;;;;;5035127;28;20045;-90
2022/01/29 01:54:48;;;;;;;52.83;37.60;;;7.30;99.90;;;;;;5013194;28;20073;-91
2022/01/29 01:57:14;;;;;;;51.13;35.83;;;7.30;99.90;;;;;;5012837;28;20052;-92
2022/01/29 01:59:40;;;;;;;50.08;36.17;;;7.30;99.90;;;;;;5030666;28;20084;-91
2022/01/29 02:02:05;;;;;;;49.50;35.70;;;7.30;99.90;;;;;;4995743;28;20091;-90
2022/01/29 02:04:33;;;;;;;53.08;37.22;;;7.30;99.90;;;;;;5013033;28;20482;-91
2022/01/29 02:06:59;;;;;;;51.05;37.28;;;7.30;99.90;;;;;;5028451;28;20045;-91
2022/01/29 02:09:25;;;;;;;56.95;38.72;;;7.30;99.90;;;;;;5012980;28;20558;-90
2022/01/29 02:11:57;;;;;;;54.97;38.28;;;7.30;99.90;;;;;;5011961;28;20128;-93
2022/01/29 02:14:24;;;;;;;58.95;40.30;;;7.40;99.90;;;;;;5012056;28;20041;-92
2022/01/29 02:16:50;;;;;;;53.08;35.42;;;7.40;99.90;;;;;;5011944;28;20033;-91
2022/01/29 02:19:16;;;;;;;57.80;39.22;;;7.30;99.90;;;;;;5029588;28;20045;-93
2022/01/29 02:21:42;;;;;;;56.47;38.83;;;7.40;99.90;;;;;;5011067;28;20045;-89
2022/01/29 02:24:07;;;;;;;61.13;38.42;;;7.40;99.90;;;;;;5012585;28;20053;-92
2022/01/29 02:26:33;;;;;;;58.70;39.33;;;7.40;99.90;;;;;;5016542;28;20409;-92
2022/01/29 02:29:01;;;;;;;60.10;40.22;;;7.40;99.90;;;;;;5017327;28;20037;-91
2022/01/29 02:31:27;;;;;;;56.85;39.72;;;7.40;99.90;;;;;;5016892;28;20041;-94
2022/01/29 02:33:53;;;;;;;55.95;38.65;;;7.40;99.90;;;;;;5014910;28;20049;-90
2022/01/29 02:36:18;;;;;;;57.25;37.30;;;7.40;99.90;;;;;;5015957;28;20045;-92
2022/01/29 02:38:44;;;;;;;54.53;37.10;;;7.40;99.90;;;;;;4999271;28;20476;-92
2022/01/29 02:41:09;;;;;;;54.30;38.05;;;7.50;99.90;;;;;;4999351;28;20409;-94
2022/01/29 02:43:48;;;;;;;57.53;36.60;;;7.40;99.90;;;;;;5033666;28;20045;-90
2022/01/29 02:48:50;;;;;;;58.90;37.17;;;7.50;99.90;;;;;;5015577;28;20049;-92
2022/01/29 02:51:16;;;;;;;;;;;7.50;99.90;;;;;;5000137;28;20064;-92
2022/01/29 02:53:42;;;;;;;47.75;30.60;;;7.50;99.90;;;;;;4998527;28;20374;-92
2022/01/29 02:56:08;;;;;;;57.80;35.65;;;7.50;99.90;;;;;;4998669;28;20042;-90
2022/01/29 02:58:34;;;;;;;53.58;36.40;;;7.60;99.90;;;;;;5032889;28;20049;-89
2022/01/29 03:01:00;;;;;;;58.08;36.22;;;7.60;99.90;;;;;;5014396;28;20060;-91
2022/01/29 03:03:25;;;;;;;52.80;35.47;;;7.70;99.90;;;;;;5032237;28;20057;-90
2022/01/29 03:05:51;;;;;;;52.35;32.97;;;7.70;99.90;;;;;;4998031;28;20049;-92
2022/01/29 03:08:17;;;;;;;56.75;34.95;;;7.70;99.90;;;;;;5015136;28;20048;-90
2022/01/29 03:10:43;;;;;;;52.63;35.38;;;7.70;99.90;;;;;;5032554;28;20112;-91
2022/01/29 03:13:09;;;;;;;54.28;34.42;;;7.80;99.90;;;;;;5015093;28;20357;-91
2022/01/29 03:15:35;;;;;;;52.83;34.83;;;7.80;99.90;;;;;;5014780;28;20072;-91
2022/01/29 03:18:01;;;;;;;53.13;34.28;;;7.80;99.90;;;;;;5014660;28;20490;-91
2022/01/29 03:20:27;;;;;;;58.38;35.05;;;7.80;99.90;;;;;;5030982;28;20057;-90
2022/01/29 03:22:52;;;;;;;54.88;35.75;;;7.80;99.90;;;;;;5014705;28;20855;-91
2022/01/29 03:25:18;;;;;;;54.10;33.13;;;7.80;99.90;;;;;;5014594;28;20053;-90
2022/01/29 03:27:44;;;;;;;52.50;33.75;;;7.80;99.90;;;;;;5015160;28;20052;-93
2022/01/29 03:30:10;;;;;;;52.70;33.65;;;7.80;99.90;;;;;;5031187;28;20057;-89
2022/01/29 03:32:36;;;;;;;50.45;32.90;;;7.90;99.90;;;;;;5014462;28;20379;-93
2022/01/29 03:35:03;;;;;;;51.72;32.42;;;7.90;99.90;;;;;;5014538;28;20494;-90
2022/01/29 03:37:28;;;;;;;47.22;31.95;;;7.90;99.90;;;;;;5031949;28;20064;-90
2022/01/29 03:39:59;;;;;;;50.30;31.85;;;7.90;99.90;;;;;;5031806;28;20465;-90
2022/01/29 03:42:26;;;;;;;48.17;31.33;;;8.00;99.90;;;;;;5033495;28;20061;-93
2022/01/29 03:44:52;;;;;;;50.03;31.27;;;8.00;99.90;;;;;;5014071;28;20077;-91
2022/01/29 03:47:17;;;;;;;49.90;32.95;;;8.00;99.90;;;;;;5032036;28;20088;-93
2022/01/29 03:49:43;;;;;;;46.08;30.60;;;8.00;99.90;;;;;;5014539;28;20037;-90
2022/01/29 03:52:08;;;;;;;47.90;30.08;;;8.00;99.90;;;;;;5014483;28;20045;-93
2022/01/29 03:54:34;;;;;;;45.53;29.08;;;8.10;99.90;;;;;;5015063;28;20649;-91
2022/01/29 03:56:59;;;;;;;45.10;29.23;;;8.10;99.90;;;;;;5032518;28;20379;-92
2022/01/29 03:59:25;;;;;;;45.63;29.73;;;8.10;99.90;;;;;;5032909;28;20046;-92
2022/01/29 04:01:50;;;;;;;45.70;28.60;;;8.10;99.90;;;;;;5014220;28;20175;-91
2022/01/29 04:04:16;;;;;;;46.55;27.70;;;8.20;99.90;;;;;;5031461;28;20060;-92
2022/01/29 04:06:41;;;;;;;49.05;28.70;;;8.20;99.90;;;;;;5032659;28;20053;-92
2022/01/29 04:09:10;;;;;;;44.50;28.08;;;8.20;99.90;;;;;;5014348;28;20053;-92
2022/01/29 04:11:38;;;;;;;44.83;28.48;;;8.30;99.90;;;;;;5015749;28;20053;-92
2022/01/29 04:14:12;;;;;;;42.22;29.45;;;8.30;99.90;;;;;;5032371;28;20056;-93
2022/01/29 04:16:38;;;;;;;39.53;27.10;;;8.30;99.90;;;;;;5031071;28;20045;-93
2022/01/29 04:19:04;;;;;;;41.08;28.08;;;8.30;99.90;;;;;;5033357;28;20049;-91
2022/01/29 04:21:29;;;;;;;47.78;27.55;;;8.30;99.90;;;;;;5032743;28;20414;-92
2022/01/29 04:23:55;;;;;;;39.92;27.70;;;8.40;99.90;;;;;;5016125;28;20325;-89
2022/01/29 04:26:20;;;;;;;42.63;27.10;;;8.40;99.90;;;;;;5032694;28;20048;-90
2022/01/29 04:28:46;;;;;;;45.30;28.85;;;8.40;99.90;;;;;;4997578;28;20043;-89
2022/01/29 04:31:17;;;;;;;44.10;28.13;;;8.40;99.90;;;;;;5013114;28;20053;-90
2022/01/29 04:33:43;;;;;;;41.35;27.52;;;8.40;99.90;;;;;;5013331;28;20041;-89
2022/01/29 04:36:09;;;;;;;39.67;26.27;;;8.40;99.90;;;;;;5015034;28;20454;-91
2022/01/29 04:38:35;;;;;;;42.40;28.05;;;8.40;99.90;;;;;;5015030;28;20048;-90
2022/01/29 04:41:04;;;;;;;40.75;27.48;;;8.40;99.90;;;;;;5030253;28;20049;-92
2022/01/29 04:43:31;;;;;;;36.85;26.48;;;8.40;99.90;;;;;;5013685;28;20051;-92
2022/01/29 04:45:57;;;;;;;40.97;27.25;;;8.50;99.90;;;;;;5030096;28;20045;-92
2022/01/29 04:48:22;;;;;;;41.20;27.33;;;8.50;99.90;;;;;;5014094;28;20121;-93
2022/01/29 04:50:48;;;;;;;39.72;27.23;;;8.50;99.90;;;;;;4995978;28;20065;-93
2022/01/29 04:53:13;;;;;;;39.20;26.52;;;8.50;99.90;;;;;;5014081;28;20037;-94
2022/01/29 04:55:39;;;;;;;33.35;26.17;;;8.50;99.90;;;;;;5031394;28;20045;-90
2022/01/29 04:58:05;;;;;;;40.28;25.17;;;8.50;99.90;;;;;;5030655;28;20056;-94
2022/01/29 05:00:31;;;;;;;38.08;26.15;;;8.50;99.90;;;;;;5012586;28;20108;-91
2022/01/29 05:03:06;;;;;;;36.60;25.27;;;8.50;99.90;;;;;;5029473;28;20041;-88
2022/01/29 05:05:32;;;;;;;35.50;25.95;;;8.50;99.90;;;;;;5030122;28;20364;-89
2022/01/29 05:07:57;;;;;;;37.13;25.60;;;8.50;99.90;;;;;;5013369;28;20086;-93
2022/01/29 05:10:23;;;;;;;36.00;26.10;;;8.50;99.90;;;;;;5013912;28;20045;-92
2022/01/29 05:15:26;;;;;;;36.63;25.85;;;8.50;99.90;;;;;;5013435;28;20057;-91
2022/01/29 05:28:48;;;;;;;38.83;25.45;;;8.60;99.90;;;;;;5050190;28;20315;-88
2022/01/29 05:31:14;;;;;;;34.03;24.27;;;8.60;99.90;;;;;;5010489;28;20049;-90
2022/01/29 05:33:39;;;;;;;35.65;24.92;;;8.60;99.90;;;;;;5030902;28;20073;-92
2022/01/29 05:36:05;;;;;;;39.38;25.75;;;8.60;99.90;;;;;;5014135;28;20077;-91
2022/01/29 05:38:31;;;;;;;37.67;25.40;;;8.60;99.90;;;;;;5030359;28;20045;-92
2022/01/29 05:40:56;;;;;;;37.10;25.67;;;8.60;99.90;;;;;;4995568;28;20045;-90
2022/01/29 05:43:22;;;;;;;33.70;25.08;;;8.60;99.90;;;;;;4995970;28;20034;-90
2022/01/29 05:45:49;;;;;;;34.17;24.23;;;8.70;99.90;;;;;;5012598;28;20487;-94
2022/01/29 05:48:14;;;;;;;35.92;25.17;;;8.70;99.90;;;;;;4996121;28;20042;-91
2022/01/29 05:50:40;;;;;;;37.80;26.45;;;8.60;99.90;;;;;;5013014;28;20383;-92
2022/01/29 05:53:05;;;;;;;36.08;24.45;;;8.70;99.90;;;;;;5030552;28;20087;-91
2022/01/29 05:55:31;;;;;;;34.53;25.77;;;8.70;99.90;;;;;;4996230;28;20045;-92
2022/01/29 05:57:56;;;;;;;34.22;25.55;;;8.70;99.90;;;;;;5013157;28;20156;-89
2022/01/29 06:00:22;;;;;;;34.85;24.65;;;8.70;99.90;;;;;;5015461;28;20060;-92
2022/01/29 06:03:01;;;;;;;34.50;25.40;;;8.70;99.90;;;;;;5016834;28;20052;-92
2022/01/29 06:05:26;;;;;;;33.72;25.63;;;8.70;99.90;;;;;;5016410;28;20052;-92
2022/01/29 06:07:52;;;;;;;32.65;24.42;;;8.80;99.90;;;;;;5017485;28;20042;-90
2022/01/29 06:10:18;;;;;;;37.28;25.10;;;8.80;99.90;;;;;;5034407;28;20316;-92
2022/01/29 06:12:43;;;;;;;31.95;24.90;;;8.80;99.90;;;;;;4999427;28;20073;-91
2022/01/29 06:15:09;;;;;;;33.35;24.80;;;8.80;99.90;;;;;;4999548;28;20505;-89
2022/01/29 06:17:34;;;;;;;35.55;24.83;;;8.80;99.90;;;;;;5016373;28;20041;-92
2022/01/29 06:20:00;;;;;;;30.67;23.98;;;8.80;99.90;;;;;;5016086;28;20061;-93
2022/01/29 06:22:26;;;;;;;27.63;22.50;;;8.80;99.90;;;;;;5017284;28;20049;-92
2022/01/29 06:24:52;;;;;;;32.83;23.02;;;8.80;99.90;;;;;;5000195;28;20437;-91
2022/01/29 06:27:17;;;;;;;29.55;20.42;;;8.80;99.90;;;;;;5017006;28;20538;-93
2022/01/29 06:29:43;;;;;;;30.38;21.00;;;8.80;99.90;;;;;;5015823;28;20410;-91
2022/01/29 06:32:09;;;;;;;31.17;21.05;;;8.80;99.90;;;;;;5016783;28;20509;-91
2022/01/29 06:34:34;;;;;;;26.42;19.40;;;8.90;99.90;;;;;;5016168;28;20046;-92
2022/01/29 06:37:00;;;;;;;27.23;20.10;;;8.90;99.90;;;;;;5014852;28;20049;-90
2022/01/29 06:39:25;;;;;;;25.05;18.17;;;8.90;99.90;;;;;;5016468;28;20482;-90
2022/01/29 06:41:51;;;;;;;25.20;17.77;;;8.90;99.90;;;;;;5031836;28;20052;-91
2022/01/29 06:44:16;;;;;;;25.13;18.00;;;8.90;99.90;;;;;;5032973;28;20375;-89
2022/01/29 06:46:42;;;;;;;25.65;17.02;;;9.00;99.90;;;;;;4998134;28;20053;-91
2022/01/29 06:49:07;;;;;;;23.30;17.08;;;9.00;99.90;;;;;;5015291;28;20038;-90
2022/01/29 06:51:33;;;;;;;22.33;16.27;;;9.00;99.90;;;;;;5033941;28;20121;-89
2022/01/29 06:53:58;;;;;;;22.27;16.77;;;9.00;99.90;;;;;;5015398;28;20402;-93
2022/01/29 06:56:24;;;;;;;25.50;16.98;;;9.00;99.90;;;;;;4998517;28;20127;-91
2022/01/29 06:58:49;;;;;;;22.52;16.58;;;9.00;99.90;;;;;;5015582;28;20092;-92
2022/01/29 07:01:15;;;;;;;23.88;15.30;;;9.10;99.90;;;;;;4999767;28;20056;-93
2022/01/29 07:03:40;;;;;;;24.33;16.83;;;9.10;99.90;;;;;;5015464;28;20095;-94
2022/01/29 07:06:06;;;;;;;21.02;14.88;;;9.10;99.90;;;;;;5015578;28;20494;-91
2022/01/29 07:08:37;;;;;;;22.30;15.85;;;9.10;99.90;;;;;;5015118;28;20045;-92
2022/01/29 07:11:02;;;;;;;21.88;14.73;;;9.10;99.90;;;;;;5030998;28;20105;-94
2022/01/29 07:13:28;;;;;;;19.42;13.65;;;9.10;99.90;;;;;;5015167;28;20076;-94
2022/01/29 07:15:53;;;;;;;20.80;15.75;;;9.20;99.90;;;;;;5015296;28;20056;-92
2022/01/29 07:18:19;;;;;;;23.25;14.93;;;9.20;99.90;;;;;;5033413;28;20049;-93
2022/01/29 07:20:46;;;;;;;19.45;14.82;;;9.20;99.90;;;;;;5014514;28;20497;-90
2022/01/29 07:23:12;;;;;;;20.13;14.23;;;9.20;99.90;;;;;;5015508;28;20390;-93
2022/01/29 07:25:37;;;;;;;21.63;15.48;;;9.20;99.90;;;;;;5035417;28;20046;-92
2022/01/29 07:28:03;;;;;;;22.13;15.32;;;9.20;99.90;;;;;;5016151;28;20191;-91
2022/01/29 07:30:29;;;;;;;22.13;15.48;;;9.30;99.90;;;;;;5032443;28;20456;-91
2022/01/29 07:32:54;;;;;;;21.92;15.93;;;9.30;99.90;;;;;;5013608;28;21035;-92
2022/01/29 07:35:20;;;;;;;21.55;15.32;;;9.30;99.90;;;;;;5015447;28;20107;-93
2022/01/29 07:37:45;;;;;;;20.48;15.30;;;9.30;99.90;;;;;;5015697;28;20048;-93
2022/01/29 07:40:11;;;;;;;20.75;15.27;;;9.30;99.90;;;;;;5015486;28;20136;-91
2022/01/29 07:42:37;;;;;;;21.17;15.13;;;9.30;99.90;;;;;;5031665;28;20084;-92
2022/01/29 07:45:03;;;;;;;22.42;15.60;;;9.30;99.90;;;;;;4997160;28;20084;-90
2022/01/29 07:47:29;;;;;;;21.77;15.82;;;9.20;99.90;;;;;;5014590;28;20045;-90
2022/01/29 07:49:55;;;;;;;21.60;16.02;;;9.20;99.90;;;;;;4997028;28;20402;-91
2022/01/29 07:52:20;;;;;;;24.38;16.70;;;9.20;99.90;;;;;;4997144;28;20045;-92
2022/01/29 07:54:46;;;;;;;22.77;16.27;;;9.10;99.90;;;;;;5031374;28;20100;-90
2022/01/29 07:57:11;;;;;;;23.48;16.70;;;9.10;99.90;;;;;;5031531;28;20045;-89
2022/01/29 07:59:37;;;;;;;24.92;16.67;;;9.10;99.90;;;;;;5031197;28;20037;-92
2022/01/29 08:02:03;;;;;;;22.83;16.88;;;9.10;99.90;;;;;;5030990;28;20041;-91
2022/01/29 08:04:28;;;;;;;24.23;16.52;;;9.10;99.90;;;;;;5014234;28;20075;-92
2022/01/29 08:06:54;;;;;;;24.02;16.17;;;9.10;99.90;;;;;;5013312;28;20053;-89
2022/01/29 08:09:19;;;;;;;23.67;17.38;;;9.10;99.90;;;;;;5012797;28;20048;-90
2022/01/29 08:11:46;;;;;;;25.85;17.10;;;9.20;99.90;;;;;;5030942;28;20127;-92
2022/01/29 08:14:11;;;;;;;21.55;16.85;;;9.10;99.90;;;;;;5030987;28;20049;-89
2022/01/29 08:16:37;;;;;;;24.13;15.40;;;9.20;99.90;;;;;;5013327;28;20044;-90
2022/01/29 08:19:02;;;;;;;25.52;16.13;;;9.20;99.90;;;;;;5013066;28;20087;-90
2022/01/29 08:21:28;;;;;;;19.65;15.10;;;9.20;99.90;;;;;;4996478;28;20058;-88
2022/01/29 08:23:54;;;;;;;21.27;14.80;;;9.20;99.90;;;;;;5029867;28;20517;-90
2022/01/29 08:26:19;;;;;;;20.85;14.30;;;9.30;99.90;;;;;;5012603;28;20053;-89
2022/01/29 08:28:45;;;;;;;21.83;12.98;;;9.30;99.90;;;;;;5013219;28;20052;-94
2022/01/29 08:31:10;;;;;;;18.13;13.43;;;9.30;99.90;;;;;;5015676;28;20044;-94
2022/01/29 08:33:36;;;;;;;19.92;13.02;;;9.30;99.90;;;;;;5013857;28;20041;-92
2022/01/29 08:36:03;;;;;;;19.05;11.90;;;9.30;99.90;;;;;;5013847;28;20115;-92
2022/01/29 08:38:29;;;;;;;18.20;12.15;;;9.40;99.90;;;;;;5013559;28;20053;-93
2022/01/29 08:40:55;;;;;;;19.10;11.13;;;9.40;99.90;;;;;;5031366;28;20056;-92
2022/01/29 08:43:22;;;;;;;16.77;10.25;;;9.40;99.90;;;;;;5014466;28;20045;-90
2022/01/29 08:45:49;;;;;;;15.77;10.20;;;9.50;99.90;;;;;;5031329;28;20041;-94
2022/01/29 08:48:15;;;;;;;16.77;10.00;;;9.50;99.90;;;;;;5032634;28;20041;-93
2022/01/29 08:50:40;;;;;;;15.65;9.30;;;9.50;99.90;;;;;;5031929;28;20402;-90
2022/01/29 08:53:06;;;;;;;14.25;8.80;;;9.50;99.90;;;;;;5035658;28;20065;-92
2022/01/29 08:55:36;;;;;;;13.50;8.88;;;9.60;99.90;;;;;;5022613;28;20068;-91
2022/01/29 08:58:06;;;;;;;16.50;8.73;;;9.60;99.90;;;;;;5035373;28;20045;-90
2022/01/29 09:00:31;;;;;;;14.00;8.82;;;9.70;99.90;;;;;;5043795;28;20477;-92
2022/01/29 09:02:57;;;;;;;16.23;9.23;;;9.70;99.90;;;;;;5029685;28;20049;-93
2022/01/29 09:05:23;;;;;;;15.35;8.88;;;9.70;99.90;;;;;;4998022;28;20430;-90
2022/01/29 09:07:48;;;;;;;14.35;8.60;;;9.70;99.90;;;;;;4996994;28;20406;-94
2022/01/29 09:10:14;;;;;;;14.70;8.80;;;9.80;99.90;;;;;;5031535;28;20222;-94
2022/01/29 09:12:40;;;;;;;13.63;8.15;;;9.80;99.90;;;;;;5030872;28;20119;-92
2022/01/29 09:15:07;;;;;;;14.20;9.32;;;9.80;99.90;;;;;;5013657;28;20080;-92
2022/01/29 09:17:33;;;;;;;14.10;9.30;;;9.80;99.90;;;;;;4996721;28;20084;-93
2022/01/29 09:19:59;;;;;;;16.08;8.93;;;9.80;99.90;;;;;;5012209;28;20140;-91
2022/01/29 09:22:24;;;;;;;15.18;8.80;;;9.80;99.90;;;;;;4996946;28;20128;-91
2022/01/29 09:24:50;;;;;;;14.40;8.45;;;9.80;99.90;;;;;;5012866;28;20033;-90
2022/01/29 09:27:16;;;;;;;15.05;9.23;;;9.80;99.90;;;;;;5013022;28;20053;-90
2022/01/29 09:29:41;;;;;;;14.75;8.77;;;9.80;99.90;;;;;;5012761;28;20050;-88
2022/01/29 09:32:07;;;;;;;14.45;8.73;;;9.90;99.90;;;;;;5012412;28;20141;-93
2022/01/29 09:34:33;;;;;;;13.90;8.60;;;9.90;99.90;;;;;;5015274;28;20048;-91
2022/01/29 09:36:58;;;;;;;14.90;8.65;;;9.90;99.90;;;;;;5017318;28;20132;-91
2022/01/29 09:39:24;;;;;;;14.43;8.57;;;9.90;99.90;;;;;;5034210;28;20038;-90
2022/01/29 09:41:50;;;;;;;14.93;8.57;;;10.00;99.90;;;;;;5016997;28;20049;-95
2022/01/29 09:44:15;;;;;;;15.15;8.40;;;10.00;99.90;;;;;;5017358;28;20045;-91
2022/01/29 09:46:44;;;;;;;15.10;8.23;;;10.00;99.90;;;;;;5017410;28;20061;-91
2022/01/29 09:49:11;;;;;;;15.43;8.73;;;10.00;99.90;;;;;;5016704;28;20046;-89
2022/01/29 09:51:38;;;;;;;15.38;9.05;;;10.10;99.90;;;;;;5017372;28;20127;-91
2022/01/29 09:54:04;;;;;;;16.02;8.68;;;10.10;99.90;;;;;;5032960;28;20419;-90
2022/01/29 09:56:31;;;;;;;11.93;7.85;;;10.10;99.90;;;;;;5034388;28;20095;-89
2022/01/29 09:58:57;;;;;;;11.90;7.75;;;10.10;99.90;;;;;;5016308;28;20049;-91
2022/01/29 10:01:22;;;;;;;14.05;8.07;;;10.20;99.90;;;;;;5034057;28;20064;-91
2022/01/29 10:04:02;;;;;;;11.90;6.80;;;10.20;99.90;;;;;;4999781;28;20107;-94
2022/01/29 10:06:28;;;;;;;12.35;6.03;;;10.20;99.90;;;;;;5032785;28;20049;-90
2022/01/29 10:08:55;;;;;;;12.73;6.75;;;10.20;99.90;;;;;;5016245;28;20103;-92
2022/01/29 10:11:26;;;;;;;11.95;5.95;;;10.20;99.90;;;;;;5033176;28;20095;-93
2022/01/29 10:13:57;;;;;;;;;;;10.20;99.90;;;;;;5017411;28;20051;-93
2022/01/29 10:16:25;;;;;;;10.95;6.00;;;10.20;99.90;;;;;;5033533;28;19978;-93
2022/01/29 10:19:11;;;;;;;10.68;5.63;;;10.20;99.90;;;;;;5034049;28;20048;-90
2022/01/29 10:21:43;;;;;;;11.20;5.70;;;10.20;99.90;;;;;;5015333;28;20061;-91
2022/01/29 10:24:14;;;;;;;11.48;6.00;;;10.30;99.90;;;;;;5032126;28;20104;-88
2022/01/29 10:26:42;;;;;;;15.88;6.20;;;10.30;99.90;;;;;;5016764;28;20055;-91
2022/01/29 10:29:10;;;;;;;12.43;6.30;;;10.30;99.90;;;;;;5015791;28;20052;-89
2022/01/29 10:31:44;;;;;;;12.65;5.82;;;10.30;99.90;;;;;;5032799;28;20068;-93
2022/01/29 10:34:31;;;;;;;12.00;5.82;;;10.40;99.90;;;;;;5032792;28;20033;-93
2022/01/29 10:37:15;;;;;;;10.70;5.45;;;10.40;99.90;;;;;;5017510;28;20049;-90
2022/01/29 10:40:15;;;;;;;13.18;6.15;;;10.40;99.90;;;;;;5016114;28;20393;-92
2022/01/29 10:42:41;;;;;;;13.23;5.18;;;10.40;99.90;;;;;;5031814;28;20095;-90
2022/01/29 10:45:08;;;;;;;12.18;5.15;;;10.40;99.90;;;;;;5032499;28;20045;-91
2022/01/29 10:47:57;;;;;;;10.73;4.78;;;10.40;99.90;;;;;;5032873;28;20049;-91
2022/01/29 10:50:23;;;;;;;11.00;4.65;;;10.50;99.90;;;;;;5016482;28;20049;-89
2022/01/29 10:52:49;;;;;;;9.75;5.30;;;10.50;99.90;;;;;;5016661;28;20042;-92
2022/01/29 10:55:14;;;;;;;11.55;5.30;;;10.50;99.90;;;;;;5001142;28;20100;-94
2022/01/29 10:57:42;;;;;;;11.27;5.45;;;10.60;99.90;;;;;;5000707;28;20052;-89
2022/01/29 11:00:17;;;;;;;10.18;4.70;;;10.60;99.90;;;;;;5032005;28;20486;-91
2022/01/29 11:02:45;;;;;;;10.30;5.40;;;10.60;99.90;;;;;;5033238;28;20045;-91
2022/01/29 11:05:11;;;;;;;10.95;4.45;;;10.60;99.90;;;;;;5014772;28;20053;-87
2022/01/29 11:07:37;;;;;;;12.77;4.88;;;10.70;99.90;;;;;;5032166;28;20053;-92
2022/01/29 11:10:06;;;;;;;10.05;4.55;;;10.60;99.90;;;;;;5032461;28;20103;-91
2022/01/29 11:12:32;;;;;;;9.05;4.13;;;10.70;99.90;;;;;;5032883;28;20046;-88
2022/01/29 11:14:59;;;;;;;8.80;3.70;;;10.80;99.90;;;;;;5032629;28;20048;-88
2022/01/29 11:17:27;;;;;;;10.68;4.00;;;10.80;99.90;;;;;;5031607;28;20041;-91
2022/01/29 11:19:53;;;;;;;9.55;3.50;;;10.80;99.90;;;;;;5031518;28;20041;-92
2022/01/29 11:22:22;;;;;;;9.85;3.05;;;10.80;99.90;;;;;;5015290;28;20060;-91
2022/01/29 11:24:56;;;;;;;9.07;3.13;;;10.80;99.90;;;;;;5015695;28;20053;-92
2022/01/29 11:27:23;;;;;;;11.00;3.20;;;10.80;99.90;;;;;;5032571;28;20363;-89
2022/01/29 11:30:08;;;;;;;10.55;3.83;;;10.80;99.90;;;;;;5015090;28;20060;-90
2022/01/29 11:32:40;;;;;;;9.15;3.40;;;10.80;99.90;;;;;;5014704;28;20046;-90
2022/01/29 11:35:26;;;;;;;10.43;3.65;;;10.80;99.90;;;;;;5015957;28;20103;-90
2022/01/29 11:38:04;;;;;;;9.40;3.97;;;10.80;99.90;;;;;;5031967;28;20485;-89
2022/01/29 11:40:44;;;;;;;8.45;3.47;;;10.80;99.90;;;;;;5014218;28;20056;-89
2022/01/29 11:43:13;;;;;;;10.77;3.60;;;10.80;99.90;;;;;;5030512;28;20053;-90
2022/01/29 11:45:49;;;;;;;10.20;4.07;;;10.80;99.90;;;;;;4997617;28;20056;-92
2022/01/29 11:48:25;;;;;;;8.95;3.58;;;10.80;99.90;;;;;;4999289;28;20176;-91
2022/01/29 11:50:51;;;;;;;11.48;3.38;;;10.80;99.90;;;;;;4999017;28;20045;-93
2022/01/29 11:53:18;;;;;;;12.30;3.75;;;10.80;99.90;;;;;;5015020;28;20125;-90
2022/01/29 11:55:44;;;;;;;10.20;3.28;;;10.80;99.90;;;;;;5014428;28;20409;-93
2022/01/29 11:58:13;;;;;;;11.20;3.30;;;10.80;99.90;;;;;;5014062;28;20033;-86
2022/01/29 12:00:40;;;;;;;9.32;3.60;;;10.80;99.90;;;;;;4998517;28;20052;-91
2022/01/29 12:03:06;;;;;;;9.50;3.30;;;10.80;99.90;;;;;;5031257;28;20041;-92
2022/01/29 12:06:30;;;;;;;10.43;3.20;;;10.80;99.90;;;;;;4998595;28;20049;-91
2022/01/29 12:09:24;;;;;;;10.15;2.90;;;10.80;99.90;;;;;;5032491;28;20095;-93
2022/01/29 12:12:12;;;;;;;9.05;3.20;;;10.80;99.90;;;;;;5031305;28;20047;-90
2022/01/29 12:14:38;;;;;;;10.68;3.33;;;10.90;99.90;;;;;;5014196;28;20375;-92
2022/01/29 12:17:05;;;;;;;12.32;3.13;;;10.90;99.90;;;;;;5013353;28;20533;-91
2022/01/29 12:19:45;;;;;;;10.10;3.05;;;10.90;99.90;;;;;;5016578;28;20421;-92
2022/01/29 12:22:13;;;;;;;12.43;3.42;;;10.90;99.90;;;;;;5034372;28;20081;-92
2022/01/29 12:24:41;;;;;;;10.90;3.13;;;10.90;99.90;;;;;;5026944;28;20033;-90
2022/01/29 12:27:08;;;;;;;10.30;2.72;;;10.90;99.90;;;;;;5034466;28;20057;-88
2022/01/29 12:29:34;;;;;;;8.73;2.70;;;10.90;99.90;;;;;;5017964;28;20129;-89
2022/01/29 12:32:00;;;;;;;8.88;2.78;;;11.00;99.90;;;;;;4998937;28;20049;-93
2022/01/29 12:34:28;;;;;;;9.48;3.35;;;11.00;99.90;;;;;;5032719;28;20103;-93
2022/01/29 12:37:14;;;;;;;10.73;3.25;;;11.00;99.90;;;;;;5013449;28;20049;-91
2022/01/29 12:39:42;;;;;;;9.43;3.08;;;11.00;99.90;;;;;;5013773;28;20060;-93
2022/01/29 12:44:37;;;;;;;10.77;3.38;;;11.10;99.90;;;;;;5013318;28;20046;-91
2022/01/29 12:47:03;;;;;;;12.63;2.90;;;11.10;99.90;;;;;;4997295;28;20041;-89
2022/01/29 12:49:42;;;;;;;8.20;3.13;;;11.10;99.90;;;;;;5031440;28;20442;-90
2022/01/29 12:52:13;;;;;;;10.35;2.90;;;11.10;99.90;;;;;;5013664;28;20095;-92
2022/01/29 12:54:38;;;;;;;9.50;2.88;;;11.10;99.90;;;;;;5030033;28;20124;-93
2022/01/29 12:57:05;;;;;;;9.55;2.88;;;11.10;99.90;;;;;;5012980;28;20079;-91